Clover Valley, Nevada Weather observations

Data are for 10 minute period ending at time listed.
 Day   Time   Solar   Ave.   Ave.  Ave.  Vector  Max.   Baro.   Total    
  of    of     Rad.   Air    Rel.  Wind   Wind   Wind  Press.  Precip.   
Year   Day            Temp.  Hum.  Speed  Dir.   Gust                    
2016   (PST)  Kw/m2    F      %     mph   deg.    mph    mb.     in.     
-------------------------------------------------------------------------
 239    8:20   0.51   64.3    24    1.3   198     2.9   828.7    0.00 
 239    8:30   0.54   65.1    24    1.4   339     3.9   828.7    0.00 
 239    8:40   0.59   64.6    24    1.3    50     3.1   828.7    0.00 
 239    8:50   0.62   67.4    22    1.3   109     4.7   828.7    0.00 
 239    9:00   0.65   67.0    22    1.2    40     3.4   828.7    0.00 
 239    9:10   0.64   67.8    22    1.8    13     3.9   828.5    0.00 
 239    9:20   0.66   67.8    19    2.2    94     5.3   828.5    0.00 
 239    9:30   0.67   68.8    18    2.0    74     5.0   828.5    0.00 
 239    9:40   0.71   68.9    18    2.2    70     4.7   828.4    0.00 
 239    9:50   0.73   69.6    18    2.2    46     5.0   828.3    0.00 
 239   10:00   0.75   70.1    18    3.1    65     4.7   828.2    0.00 
 239   10:10   0.76   70.4    17    3.6    54     6.8   828.1    0.00 
 239   10:20   0.78   71.1    18    4.5    54     7.5   828.0    0.00 
 239   10:30   0.79   73.1    15    3.9   349     7.9   827.9    0.00 
 239   10:40   0.80   73.9    15    3.0     9     7.4   827.8    0.00 
 239   10:50   0.81   74.5    15    6.5     8    15.3   827.7    0.00 
 239   11:00   0.82   74.1    15    5.9   321    13.3   827.7    0.00 
 239   11:10   0.83   75.8    13    9.3   242    17.2   827.7    0.00 
 239   11:20   0.81   76.3    13   10.2   237    16.7   827.6    0.00 
 239   11:30   0.81   75.9    13   11.4   242    21.7   827.6    0.00 
 239   11:40   0.78   76.0    13   10.2   257    20.1   827.6    0.00 
 239   11:50   0.86   76.2    12    8.6   260    18.3   827.5    0.00 
 239   12:00   0.60   76.0    12   10.6   254    18.6   827.5    0.00 
 239   12:10   0.77   75.6    13    9.4   246    20.7   827.5    0.00 
 239   12:20   0.87   76.9    12   10.3   239    20.0   827.4    0.00 
 239   12:30   0.77   76.6    12    4.9   294    11.5   827.4    0.00 
 239   12:40   0.79   76.9    12    7.6   290    18.3   827.2    0.00 
 239   12:50   0.58   77.2    12    8.4   280    17.8   827.2    0.00 
 239   13:00   0.48   75.9    12   12.9   263    21.1   827.1    0.00 
 239   13:10   0.34   75.1    13    8.8   271    17.1   827.2    0.00 
 239   13:20   0.35   74.7    13   11.5   268    18.8   827.2    0.00 
 239   13:30   0.38   74.7    13   11.8   264    20.9   827.2    0.00 
 239   13:40   0.39   74.9    13    8.3   259    13.5   827.2    0.00 
 239   13:50   0.38   75.1    12    8.2   271    14.3   827.1    0.00 
 239   14:00   0.46   75.7    13    6.7   247    11.8   827.1    0.00 
 239   14:10   0.34   75.2    13   10.8   251    19.6   827.0    0.00 
 239   14:20   0.27   74.7    13    6.1   255    12.4   827.0    0.00 
 239   14:30   0.23   73.9    13   10.9   235    16.3   826.9    0.00 
 239   14:40   0.21   73.9    13   10.4   254    17.3   826.9    0.00 
 239   14:50   0.24   73.9    13    9.4   246    18.3   827.0    0.00 
 239   15:00   0.27   74.1    13    9.7   246    16.5   827.0    0.00 
 239   15:10   0.28   74.2    13   10.3   247    16.0   827.0    0.00 
 239   15:20   0.28   74.3    14    7.9   234    15.5   827.0    0.00 
 239   15:30   0.25   74.3    14    7.0   247    11.0   827.0    0.00 
 239   15:40   0.38   75.2    14    7.1   233    13.5   826.9    0.00 
 239   15:50   0.44   75.9    13    6.8   222    11.2   826.8    0.00 
 239   16:00   0.50   77.7    12    6.9   215    11.5   826.6    0.00 
 239   16:10   0.28   77.9    12    3.5   237     7.5   826.5    0.00 
 239   16:20   0.13   75.1    14    5.3   264    14.0   826.5    0.00 
 239   16:30   0.15   73.8    14    6.3   240    13.3   826.5    0.00 
 239   16:40   0.27   74.2    14    8.8   240    17.8   826.5    0.00 
 239   16:50   0.13   74.1    13    8.3   251    18.1   826.5    0.00 
 239   17:00   0.15   73.4    14    7.7   252    13.7   826.5    0.00 
 239   17:10   0.19   74.7    14    6.2   250    12.3   826.5    0.00 
 239   17:20   0.18   74.8    14    6.5   257    11.6   826.4    0.00 
 239   17:30   0.15   74.8    13    5.9   268    13.5   826.3    0.00 
 239   17:40   0.12   73.9    16    4.0   248     6.2   826.3    0.00 
 239   17:50   0.06   71.4    18    3.9   245     5.4   826.3    0.00 
 239   18:00   0.03   68.8    20    4.7   225     7.5   826.3    0.00 
 239   18:10   0.02   66.5    25    4.1   259     5.8   826.4    0.00 
 239   18:20   0.01   54.8    50    3.4   257     5.8   826.5    0.00 
 239   18:30   0.00   59.6    31    4.9   235     6.3   826.5    0.00 
 239   18:40   0.00   61.0    27    4.6   294     5.8   826.5    0.00 
 239   18:50   0.00   58.2    28    4.4   296     8.0   826.5    0.00 
 239   19:00   0.00   57.0    31    4.1   309     5.8   826.6    0.00 
 239   19:10   0.00   56.8    31    3.4   329     4.7   826.7    0.00 
 239   19:20   0.00   56.0    33    4.7   315     7.7   826.8    0.00 
 239   19:30   0.00   54.6    36    3.7   334     5.1   826.9    0.00 
 239   19:40   0.00   51.5    43    4.4   326     5.8   827.0    0.00 
 239   19:50   0.00   50.5    43    6.7   310     8.0   827.1    0.00 
 239   20:00   0.00   55.6    32    6.5   323     7.7   827.1    0.00 
 239   20:10   0.00   56.1    31    5.0   346     6.9   827.2    0.00 
 239   20:20   0.00   54.5    34    5.7   320     6.6   827.3    0.00 
 239   20:30   0.00   51.5    39    5.5   310     6.4   827.3    0.00 
 239   20:40   0.00   50.8    38    5.5   325     7.0   827.4    0.00 
 239   20:50   0.00   52.2    35    5.8   325     7.0   827.3    0.00 
 239   21:00   0.00   52.9    34    5.9   324     8.3   827.3    0.00 
 239   21:10   0.00   52.4    36    5.1   310     8.5   827.4    0.00 
 239   21:20   0.00   53.1    36    1.8   175     8.3   827.6    0.00 
 239   21:30   0.00   53.5    36    2.2   146     3.9   827.6    0.00 
 239   21:40   0.00   52.8    35    3.6   188     4.0   827.5    0.00 
 239   21:50   0.00   53.3    33    2.5   253     4.2   827.6    0.00 
 239   22:00   0.00   51.5    35    2.2   269     6.2   827.5    0.00 
 239   22:10   0.00   48.0    38    5.5   283     6.5   827.5    0.00 
 239   22:20   0.00   47.1    38    5.1   290     6.4   827.5    0.00 
 239   22:30   0.00   49.1    45    3.6    66     6.9   827.5    0.00 
 239   22:40   0.00   48.4    48    3.9   131     9.3   827.5    0.00 
 239   22:50   0.00   46.6    52    2.3    28     5.3   827.6    0.00 
 239   23:00   0.00   45.4    57    3.9    34     5.3   827.5    0.00 
 239   23:10   0.00   43.8    54    4.0   342     5.0   827.5    0.00 
 239   23:20   0.00   44.6    51    3.7    23     4.5   827.6    0.00 
 239   23:30   0.00   44.5    48    4.0   334     4.7   827.5    0.00 
 239   23:40   0.00   43.8    49    3.8   328     5.7   827.5    0.00 
 239   23:50   0.00   42.7    53    3.4   319     4.2   827.5    0.00 
 240    0:00   0.00   41.5    57    3.3   312     3.9   827.6    0.00 
 240    0:10   0.00   40.8    59    1.5   333     3.1   827.6    0.00 
 240    0:20   0.00   40.3    61    2.9   357     4.1   827.5    0.00 
 240    0:30   0.00   41.6    55    4.1   348     5.8   827.4    0.00 
 240    0:40   0.00   43.6    50    4.4   349     6.2   827.4    0.00 
 240    0:50   0.00   43.7    53    3.4   348     4.8   827.4    0.00 
 240    1:00   0.00   42.1    65    1.9    53     4.3   827.4    0.00 
 240    1:10   0.00   40.0    69    2.4   121     3.9   827.5    0.00 
 240    1:20   0.00   38.2    68    1.4   201     2.7   827.5    0.00 
 240    1:30   0.00   37.2    68    1.6   209     3.5   827.6    0.00 
 240    1:40   0.00   38.2    62    2.4   240     4.2   827.7    0.00 
 240    1:50   0.00   37.0    58    3.4   241     4.7   827.8    0.00 
 240    2:00   0.00   37.2    57    4.2   264     5.3   827.8    0.00 
 240    2:10   0.00   37.3    58    5.1   275     5.6   827.8    0.00 
 240    2:20   0.00   37.2    62    3.0   258     5.3   827.8    0.00 
 240    2:30   0.00   36.8    74    1.9   110     3.7   827.8    0.00 
 240    2:40   0.00   36.6    71    0.3    97     2.0   827.8    0.00 
 240    2:50   0.00   36.7    69    2.5     2     3.8   827.9    0.00 
 240    3:00   0.00   35.9    73    3.4   354     4.2   827.9    0.00 
 240    3:10   0.00   35.8    71    3.1     9     3.8   827.9    0.00 
 240    3:20   0.00   35.7    70    2.8   332     3.4   827.9    0.00 
 240    3:30   0.00   35.2    68    1.0   134     2.8   828.0    0.00 
 240    3:40   0.00   35.2    77    1.3   157     2.9   828.1    0.00 
 240    3:50   0.00   34.6    76    2.0   139     3.4   828.1    0.00 
 240    4:00   0.00   33.6    74    0.9   268     3.4   828.1    0.00 
 240    4:10   0.00   32.9    76    0.6   252     2.9   828.2    0.00 
 240    4:20   0.00   33.5    75    0.1   282     1.6   828.2    0.00 
 240    4:30   0.00   34.1    74    3.1   307     4.4   828.4    0.00 
 240    4:40   0.00   33.1    72    2.6   304     3.4   828.4    0.00 
 240    4:50   0.00   33.2    68    2.9   306     4.1   828.5    0.00 
 240    5:00   0.00   33.1    71    2.4   309     3.1   828.6    0.00 
 240    5:10   0.00   33.3    68    1.5   309     3.1   828.7    0.00 
 240    5:20   0.00   33.8    69    2.6   301     3.4   828.8    0.00 
 240    5:30   0.00   34.2    64    2.2   280     4.2   828.9    0.00 
 240    5:40   0.00   35.7    64    1.9   292     3.1   828.9    0.00 
 240    5:50   0.00   38.5    67    1.6   327     3.2   828.9    0.00 
 240    6:00   0.00   41.1    61    2.1   354     3.4   828.9    0.00 
 240    6:10   0.00   42.8    56    1.9     8     3.0   829.0    0.00 
 240    6:20   0.00   44.6    53    2.2    19     3.6   829.0    0.00 
 240    6:30   0.00   45.6    49    3.3    16     4.5   828.9    0.00 
 240    6:40   0.00   47.2    39    3.1    23     4.8   828.9    0.00 
 240    6:50   0.18   49.4    38    1.7    46     3.7   828.9    0.00 
 240    7:00   0.29   50.5    37    2.4    49     3.5   829.0    0.00 
 240    7:10   0.32   52.1    31    1.6    36     3.2   829.0    0.00 
 240    7:20   0.32   54.5    28    0.7    69     2.6   829.1    0.00 
 240    7:30   0.35   55.7    29    1.4   118     3.6   829.1    0.00 
 240    7:40   0.41   58.4    27    1.1   201     2.3   829.1    0.00 
 240    7:50   0.44   59.0    27    1.4   152     3.4   829.1    0.00 
 240    8:00   0.47   60.2    27    1.6   137     3.4   829.2    0.00 
 240    8:10   0.50   61.9    26    0.7    64     2.4   829.2    0.00 

Return to Clover Valley graphs page.


Western Regional Climate Center,wrcc@dri.edu